Historyczne dane pomiarowe

Dodano dane terminowe – wersja testowa.

Dane z okresu 1951-2019

Wersja bazy: 1.34 [2019-03-16, lista zmian], aktualizacja planowana na 2019-04-15

Dane meteo z obszaru Polski uzyskane na podstawie danych udostępnionych przez Instytut Meteorologii i Gospodarki Wodnej – Państwowy Instytut Badawczy.

 

Wybierz Datę:    

       

TemperaturaWilgotnośćWiatrCiśnienieOpadyŚniegCzas trwania zjawisk
 Stacja t tx tn tng RH VA  wxwx mslp ppp RRR   cm mm wxwxwxwxwxwxwx
1961-08-14 14.2 19.4 9.1- 80.5- 6.0 1.0---- 0.9------------
1961-08-13 13.7 17.6 10.7- 78.5- 5.3 2.0---- 0.0------------
1961-08-12 16.1 19.7 14.2- 83.3- 6.0 2.0---- 0.0------------
1961-08-11 17.4 21.5 14.5- 93.5- 6.0 1.0---- 1.6------------
1961-08-10 18.9 22.9 13.8- 87.8- 7.3 2.0---- 12.1------------
1961-08-09 19.4 24.1 13.9- 70.0- 6.3 1.7---- 0.0------------
1961-08-08 17.4 21.0 8.5- 81.8- 3.0 2.3---- 0.0------------
1961-08-07 16.5 21.1 14.5- 89.3- 5.0 2.0---- 0.0------------
1961-08-06 21.4 27.8 16.8- 78.3- 4.3 2.3---- 2.0------------
1961-08-05 19.2 24.4 14.0- 84.8- 7.0 1.3---- 0.0------------
1961-08-04 14.2 17.1 8.1- 93.0- 8.0 2.7---- 2.7------------
1961-08-03 13.5 19.3 11.7- 90.0- 4.7 2.0---- 2.1------------
1961-08-02 16.3 20.7 9.9- 87.8- 7.3 1.0---- 0.3------------
1961-08-01 15.0 19.9 10.9- 84.3- 4.7 4.0---- 0.4------------
1961-07-31 14.3 16.4 12.3- 86.5- 7.7 5.3---- 13.4------------
1961-07-30 14.4 17.0 10.3- 87.8- 7.7 2.3---- 1.2------------
1961-07-29 13.2 16.5 9.4- 81.8- 8.0 2.0---- 0.0------------
1961-07-28 14.3 16.4 12.7- 93.5- 7.3 2.0---- 7.5------------
1961-07-27 17.3 21.1 14.0- 78.0- 7.0 3.3---- 2.1------------
1961-07-26 19.0 23.5 13.4- 67.0- 8.0 2.3---- 1.1------------
1961-07-25 14.9 18.6 11.4- 81.3- 8.0 1.7---- 0.0------------
1961-07-24 13.5 16.4 11.9- 80.8- 7.7 2.7---- 0.0------------
1961-07-23 14.1 16.6 12.3- 85.0- 7.7 2.0---- 0.3------------
1961-07-22 14.5 16.4 13.5- 85.3- 7.7 3.3---- 1.0------------
1961-07-21 14.2 17.5 12.9- 97.0- 7.7 2.3---- 8.0------------
1961-07-20 15.1 19.7 12.2- 86.3- 7.7 2.3---- 5.3------------
1961-07-19 15.1 20.2 10.6- 88.3- 5.7 1.7---- 0.0------------
1961-07-18 15.3 18.0 11.4- 83.8- 7.3 2.3---- 0.5------------
1961-07-17 13.7 16.3 8.9- 88.5- 7.3 1.3---- 2.2------------
1961-07-16 15.7 22.8 12.6- 80.8- 3.7 2.0---- 0.0------------
1961-07-15 17.8 23.9 12.6- 69.8- 5.0 2.0---- 0.1------------
1961-07-14 14.2 20.1 10.4- 80.3- 8.0 4.0---- 1.8------------
1961-07-13 17.5 24.9 15.3- 91.0- 8.0 4.7---- 5.1------------
1961-07-12 19.9 25.1 13.0- 76.8- 4.3 2.0---- 0.0------------
1961-07-11 17.2 20.3 10.1- 78.5- 7.0 1.7---- 3.9------------
1961-07-10 12.9 16.9 10.2- 89.3- 4.3 2.3---- 2.0------------
1961-07-09 13.7 16.9 12.4- 94.0- 7.7 2.7---- 13.7------------
1961-07-08 16.7 23.1 10.6- 77.8- 7.7 2.0---- 7.3------------
1961-07-07 12.8 18.2 8.6- 83.0- 6.7 1.7---- 0.0------------
1961-07-06 11.8 17.0 7.7- 88.8- 8.0 3.0---- 19.1------------
1961-07-05 12.2 16.4 10.7- 75.3- 5.7 6.0---- 1.8------------
1961-07-04 14.6 18.6 13.7- 88.3- 6.7 2.3---- 6.0------------
1961-07-03 22.3 32.6 17.4- 74.8- 2.3 3.3---- 1.8------------
1961-07-02 24.9 31.2 15.5- 57.0- 1.7 1.0---- 0.0------------
1961-07-01 22.2 28.4 13.8- 55.8- 0.0 1.3---- 0.0------------
1961-06-30 20.0 26.1 10.8 8.1 72.3- 0.7 1.0---- 0.0------------
1961-06-29 17.6 22.6 10.1 7.0 71.5- 1.3 3.3---- 0.0------------
1961-06-28 14.9 19.2 11.5 10.1 73.5- 4.0 4.3---- 0.0------------
1961-06-27 19.4 23.7 17.2 8.6 90.5- 7.3 3.0---- 3.0------------
1961-06-26 23.2 28.8 14.3 9.8 59.3- 1.7 1.0---- 0.0------------
1961-06-25 22.1 28.3 14.2 10.1 64.3- 1.7 2.3---- 0.0------------
1961-06-24 19.6 24.8 13.0 11.1 72.3- 7.0 2.7---- 0.0------------
1961-06-23 18.2 22.2 13.8 9.6 71.5- 5.3 3.0---- 0.0------------
1961-06-22 17.5 23.0 7.3 4.4 76.0- 1.3 2.7---- 0.0------------
1961-06-21 14.1 19.9 9.3 5.5 74.5- 4.7 1.7---- 0.0------------
1961-06-20 14.9 19.6 8.0 4.9 67.3- 0.7 2.3---- 0.0------------
1961-06-19 15.5 19.7 13.0 12.3 65.5- 2.0 3.3---- 0.0------------
1961-06-18 20.2 26.8 13.4 11.1 80.0- 4.0 3.3---- 0.0------------
1961-06-17 18.2 23.0 9.7 6.8 78.5- 4.0 1.7---- 0.0------------
1961-06-16 14.5 18.6 9.4 7.0 72.0- 1.3 2.3---- 0.0------------
593.9 ms

 

Źródłem pochodzenia danych jest Instytut Meteorologii i Gospodarki Wodnej – Państwowy Instytut Badawczy. Dane Instytutu Meteorologii i Gospodarki Wodnej – Państwowego Instytutu Badawczego zostały przetworzone.

Dane źródłowe można odnaleźć na stronie https://dane.imgw.pl